Sao Carlos, Brazil
Current Conditions -  °F | °C
As of 6:00 AM on Saturday 20 Dec 2014 (Local Time) from SBYS Reporting Station
Broken Clouds Broken Clouds  
Wind Chill: 70°   Ceiling: 10000
Heat Index: 70°   Visibility: 6mi
Dew Point: 68°   Wind: 3mph
Humidity: 94%   Direction: 190°S
Pressure: 29.91"   Gusts: NA
Location:  22.02°S, 47.89°W
Report Text: SBYS 200800Z 19003KT 9999 FEW035 BKN100 21/20 Q1013
Loading
Personal Weather Stations






























Interactive Weather Map New forecast layout! Learn more

10-Day Weather Forecast

Advertisements
Track Severe Weather on mobile